sensor_id;sensor_type;location;lat;lon;timestamp;P1;durP1;ratioP1;P2;durP2;ratioP2
3783;SDS011;1907;49.238;9.262;2022-11-20T00:00:35;12.23;;;11.03;;
3783;SDS011;1907;49.238;9.262;2022-11-20T00:03:00;12.10;;;10.90;;
3783;SDS011;1907;49.238;9.262;2022-11-20T00:05:26;56.63;;;25.93;;
3783;SDS011;1907;49.238;9.262;2022-11-20T00:07:51;25.10;;;17.67;;
3783;SDS011;1907;49.238;9.262;2022-11-20T00:10:17;14.40;;;13.00;;
3783;SDS011;1907;49.238;9.262;2022-11-20T00:12:42;50.10;;;22.80;;
3783;SDS011;1907;49.238;9.262;2022-11-20T00:15:08;50.07;;;20.90;;
3783;SDS011;1907;49.238;9.262;2022-11-20T00:17:35;15.33;;;12.40;;
3783;SDS011;1907;49.238;9.262;2022-11-20T00:20:00;16.20;;;12.90;;
3783;SDS011;1907;49.238;9.262;2022-11-20T00:22:26;29.33;;;18.87;;
3783;SDS011;1907;49.238;9.262;2022-11-20T00:24:51;21.20;;;14.80;;
3783;SDS011;1907;49.238;9.262;2022-11-20T00:27:17;14.20;;;12.67;;
3783;SDS011;1907;49.238;9.262;2022-11-20T00:29:42;20.43;;;13.20;;
3783;SDS011;1907;49.238;9.262;2022-11-20T00:32:08;14.70;;;13.20;;
3783;SDS011;1907;49.238;9.262;2022-11-20T00:34:33;17.37;;;14.63;;
3783;SDS011;1907;49.238;9.262;2022-11-20T00:36:59;13.80;;;12.47;;
3783;SDS011;1907;49.238;9.262;2022-11-20T00:39:25;14.40;;;12.27;;
3783;SDS011;1907;49.238;9.262;2022-11-20T00:41:50;9.70;;;9.10;;
3783;SDS011;1907;49.238;9.262;2022-11-20T00:44:16;11.90;;;10.83;;
3783;SDS011;1907;49.238;9.262;2022-11-20T00:46:41;10.70;;;9.80;;
3783;SDS011;1907;49.238;9.262;2022-11-20T00:49:07;11.70;;;10.77;;
3783;SDS011;1907;49.238;9.262;2022-11-20T00:51:32;10.87;;;9.87;;
3783;SDS011;1907;49.238;9.262;2022-11-20T00:53:58;12.47;;;11.50;;
3783;SDS011;1907;49.238;9.262;2022-11-20T00:56:25;11.93;;;11.03;;
3783;SDS011;1907;49.238;9.262;2022-11-20T00:58:51;12.47;;;11.13;;
3783;SDS011;1907;49.238;9.262;2022-11-20T01:01:20;13.53;;;12.33;;
3783;SDS011;1907;49.238;9.262;2022-11-20T01:03:49;10.97;;;10.23;;
3783;SDS011;1907;49.238;9.262;2022-11-20T01:06:23;10.37;;;9.10;;
3783;SDS011;1907;49.238;9.262;2022-11-20T01:08:52;10.10;;;9.23;;
3783;SDS011;1907;49.238;9.262;2022-11-20T01:11:20;11.70;;;10.60;;
3783;SDS011;1907;49.238;9.262;2022-11-20T01:13:48;10.80;;;10.10;;
3783;SDS011;1907;49.238;9.262;2022-11-20T01:16:20;11.30;;;10.40;;
3783;SDS011;1907;49.238;9.262;2022-11-20T01:18:51;11.43;;;10.27;;
3783;SDS011;1907;49.238;9.262;2022-11-20T01:21:25;9.90;;;9.40;;
3783;SDS011;1907;49.238;9.262;2022-11-20T01:23:52;11.20;;;10.50;;
3783;SDS011;1907;49.238;9.262;2022-11-20T01:26:20;11.10;;;10.60;;
3783;SDS011;1907;49.238;9.262;2022-11-20T01:28:48;12.33;;;10.40;;
3783;SDS011;1907;49.238;9.262;2022-11-20T01:33:44;8.87;;;8.20;;
3783;SDS011;1907;49.238;9.262;2022-11-20T01:36:11;9.63;;;8.83;;
3783;SDS011;1907;49.238;9.262;2022-11-20T01:38:37;10.30;;;8.80;;
3783;SDS011;1907;49.238;9.262;2022-11-20T01:41:03;9.97;;;8.73;;
3783;SDS011;1907;49.238;9.262;2022-11-20T01:43:30;11.67;;;10.80;;
3783;SDS011;1907;49.238;9.262;2022-11-20T01:45:58;11.93;;;10.83;;
3783;SDS011;1907;49.238;9.262;2022-11-20T01:48:27;11.33;;;10.33;;
3783;SDS011;1907;49.238;9.262;2022-11-20T01:51:05;12.73;;;11.63;;
3783;SDS011;1907;49.238;9.262;2022-11-20T01:53:37;10.10;;;9.50;;
3783;SDS011;1907;49.238;9.262;2022-11-20T01:56:05;12.20;;;11.17;;
3783;SDS011;1907;49.238;9.262;2022-11-20T01:58:33;10.90;;;9.70;;
3783;SDS011;1907;49.238;9.262;2022-11-20T02:01:02;11.93;;;10.83;;
3783;SDS011;1907;49.238;9.262;2022-11-20T02:03:28;9.50;;;8.80;;
3783;SDS011;1907;49.238;9.262;2022-11-20T02:09:02;14.53;;;9.47;;
3783;SDS011;1907;49.238;9.262;2022-11-20T02:11:29;10.17;;;9.20;;
3783;SDS011;1907;49.238;9.262;2022-11-20T02:13:55;11.33;;;9.43;;
3783;SDS011;1907;49.238;9.262;2022-11-20T02:18:50;10.60;;;9.87;;
3783;SDS011;1907;49.238;9.262;2022-11-20T02:24:19;11.70;;;10.70;;
3783;SDS011;1907;49.238;9.262;2022-11-20T02:26:52;10.20;;;9.47;;
3783;SDS011;1907;49.238;9.262;2022-11-20T02:29:24;10.30;;;9.67;;
3783;SDS011;1907;49.238;9.262;2022-11-20T02:31:52;10.77;;;9.73;;
3783;SDS011;1907;49.238;9.262;2022-11-20T02:34:20;11.30;;;10.50;;
3783;SDS011;1907;49.238;9.262;2022-11-20T02:36:46;10.30;;;9.60;;
3783;SDS011;1907;49.238;9.262;2022-11-20T02:39:13;11.70;;;10.53;;
3783;SDS011;1907;49.238;9.262;2022-11-20T02:41:41;9.70;;;8.93;;
3783;SDS011;1907;49.238;9.262;2022-11-20T02:44:07;11.13;;;10.30;;
3783;SDS011;1907;49.238;9.262;2022-11-20T02:46:33;11.83;;;10.83;;
3783;SDS011;1907;49.238;9.262;2022-11-20T02:49:00;10.57;;;9.57;;
3783;SDS011;1907;49.238;9.262;2022-11-20T02:51:27;13.67;;;12.20;;
3783;SDS011;1907;49.238;9.262;2022-11-20T02:53:53;23.73;;;13.07;;
3783;SDS011;1907;49.238;9.262;2022-11-20T02:56:19;12.20;;;11.30;;
3783;SDS011;1907;49.238;9.262;2022-11-20T02:58:45;10.73;;;9.73;;
3783;SDS011;1907;49.238;9.262;2022-11-20T03:01:11;11.63;;;10.53;;
3783;SDS011;1907;49.238;9.262;2022-11-20T03:03:36;14.53;;;11.03;;
3783;SDS011;1907;49.238;9.262;2022-11-20T03:06:02;12.60;;;10.90;;
3783;SDS011;1907;49.238;9.262;2022-11-20T03:08:28;12.07;;;11.23;;
3783;SDS011;1907;49.238;9.262;2022-11-20T03:10:53;10.77;;;9.60;;
3783;SDS011;1907;49.238;9.262;2022-11-20T03:13:19;11.67;;;10.43;;
3783;SDS011;1907;49.238;9.262;2022-11-20T03:15:44;11.50;;;10.53;;
3783;SDS011;1907;49.238;9.262;2022-11-20T03:18:10;19.57;;;12.13;;
3783;SDS011;1907;49.238;9.262;2022-11-20T03:20:36;10.57;;;9.67;;
3783;SDS011;1907;49.238;9.262;2022-11-20T03:23:01;15.50;;;11.87;;
3783;SDS011;1907;49.238;9.262;2022-11-20T03:25:27;9.43;;;8.60;;
3783;SDS011;1907;49.238;9.262;2022-11-20T03:27:53;10.07;;;9.27;;
3783;SDS011;1907;49.238;9.262;2022-11-20T03:30:19;12.33;;;11.20;;
3783;SDS011;1907;49.238;9.262;2022-11-20T03:32:45;12.37;;;10.87;;
3783;SDS011;1907;49.238;9.262;2022-11-20T03:35:10;12.97;;;11.20;;
3783;SDS011;1907;49.238;9.262;2022-11-20T03:37:36;14.40;;;13.00;;
3783;SDS011;1907;49.238;9.262;2022-11-20T03:40:02;11.83;;;10.93;;
3783;SDS011;1907;49.238;9.262;2022-11-20T03:42:28;14.67;;;13.27;;
3783;SDS011;1907;49.238;9.262;2022-11-20T03:45:12;13.03;;;11.80;;
3783;SDS011;1907;49.238;9.262;2022-11-20T03:47:39;11.30;;;10.50;;
3783;SDS011;1907;49.238;9.262;2022-11-20T03:50:05;15.10;;;13.63;;
3783;SDS011;1907;49.238;9.262;2022-11-20T03:52:31;12.60;;;11.60;;
3783;SDS011;1907;49.238;9.262;2022-11-20T03:54:56;10.97;;;10.10;;
3783;SDS011;1907;49.238;9.262;2022-11-20T03:57:22;11.00;;;9.87;;
3783;SDS011;1907;49.238;9.262;2022-11-20T03:59:47;13.27;;;12.00;;
3783;SDS011;1907;49.238;9.262;2022-11-20T04:02:13;13.60;;;12.10;;
3783;SDS011;1907;49.238;9.262;2022-11-20T04:04:38;12.70;;;11.60;;
3783;SDS011;1907;49.238;9.262;2022-11-20T04:07:04;9.63;;;8.97;;
3783;SDS011;1907;49.238;9.262;2022-11-20T04:09:30;17.23;;;11.07;;
3783;SDS011;1907;49.238;9.262;2022-11-20T04:11:55;11.03;;;10.23;;
3783;SDS011;1907;49.238;9.262;2022-11-20T04:14:21;11.70;;;10.63;;
3783;SDS011;1907;49.238;9.262;2022-11-20T04:16:46;11.47;;;10.63;;
3783;SDS011;1907;49.238;9.262;2022-11-20T04:19:13;12.87;;;11.73;;
3783;SDS011;1907;49.238;9.262;2022-11-20T04:21:40;13.50;;;12.40;;
3783;SDS011;1907;49.238;9.262;2022-11-20T04:24:07;12.07;;;10.57;;
3783;SDS011;1907;49.238;9.262;2022-11-20T04:26:33;12.53;;;10.90;;
3783;SDS011;1907;49.238;9.262;2022-11-20T04:28:59;11.87;;;10.23;;
3783;SDS011;1907;49.238;9.262;2022-11-20T04:31:30;13.77;;;12.30;;
3783;SDS011;1907;49.238;9.262;2022-11-20T04:34:01;13.07;;;11.83;;
3783;SDS011;1907;49.238;9.262;2022-11-20T04:36:29;14.77;;;11.60;;
3783;SDS011;1907;49.238;9.262;2022-11-20T04:38:59;13.57;;;12.40;;
3783;SDS011;1907;49.238;9.262;2022-11-20T04:41:27;12.73;;;11.63;;
3783;SDS011;1907;49.238;9.262;2022-11-20T04:43:56;11.00;;;10.07;;
3783;SDS011;1907;49.238;9.262;2022-11-20T04:46:28;11.60;;;10.27;;
3783;SDS011;1907;49.238;9.262;2022-11-20T04:48:54;12.10;;;9.73;;
3783;SDS011;1907;49.238;9.262;2022-11-20T04:51:20;10.90;;;9.80;;
3783;SDS011;1907;49.238;9.262;2022-11-20T04:53:46;14.87;;;10.80;;
3783;SDS011;1907;49.238;9.262;2022-11-20T04:56:12;14.17;;;12.10;;
3783;SDS011;1907;49.238;9.262;2022-11-20T04:58:38;12.57;;;11.27;;
3783;SDS011;1907;49.238;9.262;2022-11-20T05:01:09;11.57;;;10.57;;
3783;SDS011;1907;49.238;9.262;2022-11-20T05:03:40;11.07;;;10.20;;
3783;SDS011;1907;49.238;9.262;2022-11-20T05:06:07;12.10;;;9.43;;
3783;SDS011;1907;49.238;9.262;2022-11-20T05:08:33;15.13;;;11.10;;
3783;SDS011;1907;49.238;9.262;2022-11-20T05:11:03;12.17;;;11.20;;
3783;SDS011;1907;49.238;9.262;2022-11-20T05:13:30;11.93;;;10.57;;
3783;SDS011;1907;49.238;9.262;2022-11-20T05:16:00;12.90;;;11.87;;
3783;SDS011;1907;49.238;9.262;2022-11-20T05:18:37;11.43;;;10.30;;
3783;SDS011;1907;49.238;9.262;2022-11-20T05:21:03;11.87;;;10.93;;
3783;SDS011;1907;49.238;9.262;2022-11-20T05:23:29;12.20;;;11.33;;
3783;SDS011;1907;49.238;9.262;2022-11-20T05:25:56;12.07;;;11.00;;
3783;SDS011;1907;49.238;9.262;2022-11-20T05:28:22;11.77;;;10.73;;
3783;SDS011;1907;49.238;9.262;2022-11-20T05:30:49;10.70;;;9.70;;
3783;SDS011;1907;49.238;9.262;2022-11-20T05:33:14;11.07;;;9.93;;
3783;SDS011;1907;49.238;9.262;2022-11-20T05:35:40;11.67;;;8.93;;
3783;SDS011;1907;49.238;9.262;2022-11-20T05:38:06;11.37;;;10.57;;
3783;SDS011;1907;49.238;9.262;2022-11-20T05:40:32;11.60;;;9.60;;
3783;SDS011;1907;49.238;9.262;2022-11-20T05:42:57;10.40;;;9.53;;
3783;SDS011;1907;49.238;9.262;2022-11-20T05:45:23;10.97;;;10.20;;
3783;SDS011;1907;49.238;9.262;2022-11-20T05:47:48;12.23;;;11.17;;
3783;SDS011;1907;49.238;9.262;2022-11-20T05:50:14;13.50;;;9.60;;
3783;SDS011;1907;49.238;9.262;2022-11-20T05:52:40;11.73;;;10.67;;
3783;SDS011;1907;49.238;9.262;2022-11-20T05:55:06;10.70;;;9.90;;
3783;SDS011;1907;49.238;9.262;2022-11-20T05:57:32;12.23;;;11.43;;
3783;SDS011;1907;49.238;9.262;2022-11-20T05:59:57;9.53;;;8.93;;
3783;SDS011;1907;49.238;9.262;2022-11-20T06:02:23;10.73;;;9.60;;
3783;SDS011;1907;49.238;9.262;2022-11-20T06:04:49;10.93;;;10.10;;
3783;SDS011;1907;49.238;9.262;2022-11-20T06:07:14;10.00;;;9.30;;
3783;SDS011;1907;49.238;9.262;2022-11-20T06:09:40;8.57;;;7.97;;
3783;SDS011;1907;49.238;9.262;2022-11-20T06:12:06;10.23;;;9.23;;
3783;SDS011;1907;49.238;9.262;2022-11-20T06:14:32;9.20;;;8.80;;
3783;SDS011;1907;49.238;9.262;2022-11-20T06:16:57;8.83;;;8.20;;
3783;SDS011;1907;49.238;9.262;2022-11-20T06:19:23;5.83;;;5.60;;
3783;SDS011;1907;49.238;9.262;2022-11-20T06:21:49;6.43;;;5.93;;
3783;SDS011;1907;49.238;9.262;2022-11-20T06:24:15;7.70;;;7.20;;
3783;SDS011;1907;49.238;9.262;2022-11-20T06:26:41;7.07;;;6.57;;
3783;SDS011;1907;49.238;9.262;2022-11-20T06:29:06;5.40;;;5.00;;
3783;SDS011;1907;49.238;9.262;2022-11-20T06:31:32;6.47;;;6.13;;
3783;SDS011;1907;49.238;9.262;2022-11-20T06:33:59;5.80;;;5.40;;
3783;SDS011;1907;49.238;9.262;2022-11-20T06:36:25;7.60;;;7.03;;
3783;SDS011;1907;49.238;9.262;2022-11-20T06:38:51;6.70;;;6.30;;
3783;SDS011;1907;49.238;9.262;2022-11-20T06:41:18;6.57;;;6.27;;
3783;SDS011;1907;49.238;9.262;2022-11-20T06:43:45;7.57;;;7.17;;
3783;SDS011;1907;49.238;9.262;2022-11-20T06:46:11;6.87;;;6.57;;
3783;SDS011;1907;49.238;9.262;2022-11-20T06:48:39;6.90;;;6.60;;
3783;SDS011;1907;49.238;9.262;2022-11-20T06:51:05;9.13;;;7.73;;
3783;SDS011;1907;49.238;9.262;2022-11-20T06:53:31;7.63;;;7.23;;
3783;SDS011;1907;49.238;9.262;2022-11-20T06:55:57;8.03;;;7.67;;
3783;SDS011;1907;49.238;9.262;2022-11-20T06:58:25;8.50;;;7.80;;
3783;SDS011;1907;49.238;9.262;2022-11-20T07:00:52;8.37;;;7.70;;
3783;SDS011;1907;49.238;9.262;2022-11-20T07:03:18;8.73;;;7.73;;
3783;SDS011;1907;49.238;9.262;2022-11-20T07:05:44;7.50;;;7.20;;
3783;SDS011;1907;49.238;9.262;2022-11-20T07:08:10;9.83;;;8.97;;
3783;SDS011;1907;49.238;9.262;2022-11-20T07:10:37;7.77;;;7.20;;
3783;SDS011;1907;49.238;9.262;2022-11-20T07:13:02;8.27;;;7.47;;
3783;SDS011;1907;49.238;9.262;2022-11-20T07:15:28;9.40;;;8.53;;
3783;SDS011;1907;49.238;9.262;2022-11-20T07:17:54;9.43;;;8.40;;
3783;SDS011;1907;49.238;9.262;2022-11-20T07:20:20;8.93;;;8.47;;
3783;SDS011;1907;49.238;9.262;2022-11-20T07:22:46;12.93;;;8.60;;
3783;SDS011;1907;49.238;9.262;2022-11-20T07:25:11;8.93;;;8.30;;
3783;SDS011;1907;49.238;9.262;2022-11-20T07:27:37;8.10;;;7.57;;
3783;SDS011;1907;49.238;9.262;2022-11-20T07:30:03;15.13;;;8.53;;
3783;SDS011;1907;49.238;9.262;2022-11-20T07:32:29;8.77;;;7.97;;
3783;SDS011;1907;49.238;9.262;2022-11-20T07:34:55;8.40;;;7.87;;
3783;SDS011;1907;49.238;9.262;2022-11-20T07:37:20;7.43;;;7.03;;
3783;SDS011;1907;49.238;9.262;2022-11-20T07:39:46;7.00;;;6.50;;
3783;SDS011;1907;49.238;9.262;2022-11-20T07:42:12;7.30;;;6.90;;
3783;SDS011;1907;49.238;9.262;2022-11-20T07:44:38;7.30;;;6.90;;
3783;SDS011;1907;49.238;9.262;2022-11-20T07:47:03;7.90;;;7.50;;
3783;SDS011;1907;49.238;9.262;2022-11-20T07:49:29;8.87;;;8.37;;
3783;SDS011;1907;49.238;9.262;2022-11-20T07:51:55;7.40;;;6.87;;
3783;SDS011;1907;49.238;9.262;2022-11-20T07:54:21;6.97;;;6.57;;
3783;SDS011;1907;49.238;9.262;2022-11-20T07:56:47;7.30;;;7.00;;
3783;SDS011;1907;49.238;9.262;2022-11-20T07:59:14;8.43;;;7.93;;
3783;SDS011;1907;49.238;9.262;2022-11-20T08:01:41;6.40;;;6.00;;
3783;SDS011;1907;49.238;9.262;2022-11-20T08:04:07;6.90;;;6.50;;
3783;SDS011;1907;49.238;9.262;2022-11-20T08:06:33;8.20;;;7.70;;
3783;SDS011;1907;49.238;9.262;2022-11-20T08:09:00;8.20;;;7.27;;
3783;SDS011;1907;49.238;9.262;2022-11-20T08:11:25;7.73;;;6.87;;
3783;SDS011;1907;49.238;9.262;2022-11-20T08:14:10;5.73;;;5.53;;
3783;SDS011;1907;49.238;9.262;2022-11-20T08:16:42;6.07;;;5.87;;
3783;SDS011;1907;49.238;9.262;2022-11-20T08:19:08;6.30;;;5.80;;
3783;SDS011;1907;49.238;9.262;2022-11-20T08:21:34;6.50;;;5.97;;
3783;SDS011;1907;49.238;9.262;2022-11-20T08:23:59;6.70;;;6.30;;
3783;SDS011;1907;49.238;9.262;2022-11-20T08:26:25;6.53;;;6.23;;
3783;SDS011;1907;49.238;9.262;2022-11-20T08:28:57;6.40;;;6.00;;
3783;SDS011;1907;49.238;9.262;2022-11-20T08:31:24;4.60;;;4.40;;
3783;SDS011;1907;49.238;9.262;2022-11-20T08:33:51;4.60;;;4.43;;
3783;SDS011;1907;49.238;9.262;2022-11-20T08:36:17;3.70;;;3.60;;
3783;SDS011;1907;49.238;9.262;2022-11-20T08:38:47;5.00;;;4.80;;
3783;SDS011;1907;49.238;9.262;2022-11-20T08:41:16;6.30;;;4.43;;
3783;SDS011;1907;49.238;9.262;2022-11-20T08:43:49;4.57;;;4.37;;
3783;SDS011;1907;49.238;9.262;2022-11-20T08:46:15;4.07;;;3.90;;
3783;SDS011;1907;49.238;9.262;2022-11-20T08:48:41;4.33;;;4.13;;
3783;SDS011;1907;49.238;9.262;2022-11-20T08:51:07;3.93;;;3.73;;
3783;SDS011;1907;49.238;9.262;2022-11-20T08:53:33;3.67;;;3.57;;
3783;SDS011;1907;49.238;9.262;2022-11-20T08:55:59;4.20;;;4.00;;
3783;SDS011;1907;49.238;9.262;2022-11-20T08:58:25;3.70;;;3.50;;
3783;SDS011;1907;49.238;9.262;2022-11-20T09:00:50;3.50;;;3.40;;
3783;SDS011;1907;49.238;9.262;2022-11-20T09:03:16;4.77;;;4.20;;
3783;SDS011;1907;49.238;9.262;2022-11-20T09:05:42;4.10;;;4.00;;
3783;SDS011;1907;49.238;9.262;2022-11-20T09:08:08;7.87;;;4.30;;
3783;SDS011;1907;49.238;9.262;2022-11-20T09:10:33;3.33;;;3.23;;
3783;SDS011;1907;49.238;9.262;2022-11-20T09:12:59;4.33;;;4.13;;
3783;SDS011;1907;49.238;9.262;2022-11-20T09:15:26;4.43;;;4.10;;
3783;SDS011;1907;49.238;9.262;2022-11-20T09:17:56;3.80;;;3.60;;
3783;SDS011;1907;49.238;9.262;2022-11-20T09:20:29;3.73;;;3.60;;
3783;SDS011;1907;49.238;9.262;2022-11-20T09:22:56;4.00;;;3.90;;
3783;SDS011;1907;49.238;9.262;2022-11-20T09:25:22;3.43;;;2.93;;
3783;SDS011;1907;49.238;9.262;2022-11-20T09:27:48;2.80;;;2.70;;
3783;SDS011;1907;49.238;9.262;2022-11-20T09:30:24;3.57;;;3.37;;
3783;SDS011;1907;49.238;9.262;2022-11-20T09:32:50;3.83;;;3.20;;
3783;SDS011;1907;49.238;9.262;2022-11-20T09:35:16;3.17;;;2.97;;
3783;SDS011;1907;49.238;9.262;2022-11-20T09:37:42;4.60;;;4.20;;
3783;SDS011;1907;49.238;9.262;2022-11-20T09:40:16;3.37;;;3.27;;
3783;SDS011;1907;49.238;9.262;2022-11-20T09:48:13;4.27;;;3.97;;
3783;SDS011;1907;49.238;9.262;2022-11-20T09:56:23;7.63;;;3.63;;
3783;SDS011;1907;49.238;9.262;2022-11-20T09:58:51;4.47;;;4.27;;
3783;SDS011;1907;49.238;9.262;2022-11-20T10:01:21;6.33;;;5.00;;
3783;SDS011;1907;49.238;9.262;2022-11-20T10:06:31;5.17;;;4.93;;
3783;SDS011;1907;49.238;9.262;2022-11-20T10:31:55;5.13;;;4.93;;
3783;SDS011;1907;49.238;9.262;2022-11-20T10:34:47;4.10;;;4.00;;
3783;SDS011;1907;49.238;9.262;2022-11-20T10:37:34;3.00;;;2.90;;
3783;SDS011;1907;49.238;9.262;2022-11-20T10:40:14;2.60;;;2.50;;
3783;SDS011;1907;49.238;9.262;2022-11-20T10:42:44;2.23;;;2.13;;
3783;SDS011;1907;49.238;9.262;2022-11-20T10:47:56;2.23;;;2.13;;
3783;SDS011;1907;49.238;9.262;2022-11-20T10:50:57;1.80;;;1.70;;
3783;SDS011;1907;49.238;9.262;2022-11-20T10:59:14;2.57;;;2.47;;
3783;SDS011;1907;49.238;9.262;2022-11-20T11:02:00;2.93;;;2.77;;
3783;SDS011;1907;49.238;9.262;2022-11-20T11:07:10;2.50;;;2.40;;
3783;SDS011;1907;49.238;9.262;2022-11-20T11:09:47;4.73;;;3.40;;
3783;SDS011;1907;49.238;9.262;2022-11-20T11:12:15;2.30;;;2.20;;
3783;SDS011;1907;49.238;9.262;2022-11-20T11:14:45;2.23;;;2.13;;
3783;SDS011;1907;49.238;9.262;2022-11-20T11:17:28;2.10;;;2.00;;
3783;SDS011;1907;49.238;9.262;2022-11-20T11:22:51;2.40;;;2.30;;
3783;SDS011;1907;49.238;9.262;2022-11-20T11:25:29;2.73;;;2.50;;
3783;SDS011;1907;49.238;9.262;2022-11-20T11:27:59;1.73;;;1.63;;
3783;SDS011;1907;49.238;9.262;2022-11-20T11:30:30;2.80;;;2.63;;
3783;SDS011;1907;49.238;9.262;2022-11-20T11:33:10;2.37;;;2.17;;
3783;SDS011;1907;49.238;9.262;2022-11-20T11:35:44;2.37;;;2.27;;
3783;SDS011;1907;49.238;9.262;2022-11-20T11:38:13;2.80;;;2.70;;
3783;SDS011;1907;49.238;9.262;2022-11-20T11:41:00;3.53;;;2.43;;
3783;SDS011;1907;49.238;9.262;2022-11-20T11:43:28;2.37;;;2.17;;
3783;SDS011;1907;49.238;9.262;2022-11-20T11:48:54;2.70;;;2.60;;
3783;SDS011;1907;49.238;9.262;2022-11-20T11:51:25;1.87;;;1.77;;
3783;SDS011;1907;49.238;9.262;2022-11-20T11:53:54;1.87;;;1.60;;
3783;SDS011;1907;49.238;9.262;2022-11-20T11:56:21;2.22;;;2.10;;
3783;SDS011;1907;49.238;9.262;2022-11-20T11:58:50;4.10;;;3.80;;
3783;SDS011;1907;49.238;9.262;2022-11-20T12:04:05;3.40;;;3.10;;
3783;SDS011;1907;49.238;9.262;2022-11-20T12:06:45;2.73;;;2.63;;
3783;SDS011;1907;49.238;9.262;2022-11-20T12:09:16;2.73;;;2.53;;
3783;SDS011;1907;49.238;9.262;2022-11-20T12:11:54;3.87;;;2.67;;
3783;SDS011;1907;49.238;9.262;2022-11-20T12:14:34;2.13;;;1.93;;
3783;SDS011;1907;49.238;9.262;2022-11-20T12:17:00;5.73;;;1.70;;
3783;SDS011;1907;49.238;9.262;2022-11-20T12:19:26;6.20;;;1.90;;
3783;SDS011;1907;49.238;9.262;2022-11-20T12:29:58;1.53;;;1.43;;
3783;SDS011;1907;49.238;9.262;2022-11-20T12:38:26;1.33;;;1.30;;
3783;SDS011;1907;49.238;9.262;2022-11-20T12:47:33;1.70;;;1.60;;
3783;SDS011;1907;49.238;9.262;2022-11-20T12:58:27;1.13;;;1.13;;
3783;SDS011;1907;49.238;9.262;2022-11-20T13:03:36;1.93;;;1.63;;
3783;SDS011;1907;49.238;9.262;2022-11-20T13:06:10;2.10;;;1.27;;
3783;SDS011;1907;49.238;9.262;2022-11-20T13:08:40;2.17;;;1.63;;
3783;SDS011;1907;49.238;9.262;2022-11-20T13:18:41;1.63;;;1.53;;
3783;SDS011;1907;49.238;9.262;2022-11-20T13:21:17;1.43;;;1.33;;
3783;SDS011;1907;49.238;9.262;2022-11-20T13:23:46;1.17;;;1.13;;
3783;SDS011;1907;49.238;9.262;2022-11-20T13:26:19;2.03;;;1.37;;
3783;SDS011;1907;49.238;9.262;2022-11-20T13:28:48;1.97;;;1.87;;
3783;SDS011;1907;49.238;9.262;2022-11-20T13:31:33;1.93;;;1.73;;
3783;SDS011;1907;49.238;9.262;2022-11-20T13:34:02;1.10;;;1.00;;
3783;SDS011;1907;49.238;9.262;2022-11-20T13:36:30;4.90;;;1.57;;
3783;SDS011;1907;49.238;9.262;2022-11-20T13:38:57;1.47;;;1.37;;
3783;SDS011;1907;49.238;9.262;2022-11-20T13:41:28;1.47;;;1.30;;
3783;SDS011;1907;49.238;9.262;2022-11-20T13:46:35;2.00;;;0.93;;
3783;SDS011;1907;49.238;9.262;2022-11-20T13:49:06;2.00;;;1.43;;
3783;SDS011;1907;49.238;9.262;2022-11-20T13:54:22;1.20;;;1.10;;
3783;SDS011;1907;49.238;9.262;2022-11-20T14:02:42;1.80;;;1.00;;
3783;SDS011;1907;49.238;9.262;2022-11-20T14:05:16;1.10;;;0.83;;
3783;SDS011;1907;49.238;9.262;2022-11-20T14:07:45;1.17;;;0.90;;
3783;SDS011;1907;49.238;9.262;2022-11-20T14:10:24;1.70;;;1.60;;
3783;SDS011;1907;49.238;9.262;2022-11-20T14:12:51;2.40;;;1.20;;
3783;SDS011;1907;49.238;9.262;2022-11-20T14:15:27;1.77;;;1.67;;
3783;SDS011;1907;49.238;9.262;2022-11-20T14:17:53;1.90;;;1.80;;
3783;SDS011;1907;49.238;9.262;2022-11-20T14:20:19;1.20;;;1.10;;
3783;SDS011;1907;49.238;9.262;2022-11-20T14:22:51;0.93;;;0.93;;
3783;SDS011;1907;49.238;9.262;2022-11-20T14:27:52;3.57;;;1.10;;
3783;SDS011;1907;49.238;9.262;2022-11-20T14:30:24;1.00;;;1.00;;
3783;SDS011;1907;49.238;9.262;2022-11-20T14:32:53;1.93;;;0.70;;
3783;SDS011;1907;49.238;9.262;2022-11-20T14:35:25;1.10;;;1.10;;
3783;SDS011;1907;49.238;9.262;2022-11-20T14:37:53;1.03;;;1.00;;
3783;SDS011;1907;49.238;9.262;2022-11-20T14:40:30;5.63;;;0.90;;
3783;SDS011;1907;49.238;9.262;2022-11-20T14:42:58;1.00;;;0.80;;
3783;SDS011;1907;49.238;9.262;2022-11-20T14:45:24;1.03;;;1.00;;
3783;SDS011;1907;49.238;9.262;2022-11-20T14:47:55;1.37;;;1.30;;
3783;SDS011;1907;49.238;9.262;2022-11-20T14:50:23;1.63;;;1.20;;
3783;SDS011;1907;49.238;9.262;2022-11-20T14:52:52;1.20;;;1.10;;
3783;SDS011;1907;49.238;9.262;2022-11-20T14:55:36;2.13;;;0.87;;
3783;SDS011;1907;49.238;9.262;2022-11-20T14:58:19;4.37;;;1.87;;
3783;SDS011;1907;49.238;9.262;2022-11-20T15:00:57;3.70;;;1.10;;
3783;SDS011;1907;49.238;9.262;2022-11-20T15:03:30;5.80;;;1.30;;
3783;SDS011;1907;49.238;9.262;2022-11-20T15:05:57;5.87;;;1.40;;
3783;SDS011;1907;49.238;9.262;2022-11-20T15:08:23;2.20;;;1.13;;
3783;SDS011;1907;49.238;9.262;2022-11-20T15:10:49;1.40;;;1.30;;
3783;SDS011;1907;49.238;9.262;2022-11-20T15:13:18;2.50;;;2.40;;
3783;SDS011;1907;49.238;9.262;2022-11-20T15:15:55;4.00;;;3.60;;
3783;SDS011;1907;49.238;9.262;2022-11-20T15:18:42;2.80;;;2.60;;
3783;SDS011;1907;49.238;9.262;2022-11-20T15:21:11;2.27;;;2.13;;
3783;SDS011;1907;49.238;9.262;2022-11-20T15:23:41;2.57;;;2.47;;
3783;SDS011;1907;49.238;9.262;2022-11-20T15:26:10;2.70;;;2.60;;
3783;SDS011;1907;49.238;9.262;2022-11-20T15:28:45;2.10;;;2.00;;
3783;SDS011;1907;49.238;9.262;2022-11-20T15:31:13;3.03;;;2.10;;
3783;SDS011;1907;49.238;9.262;2022-11-20T15:33:40;1.33;;;1.23;;
3783;SDS011;1907;49.238;9.262;2022-11-20T15:36:07;1.97;;;1.87;;
3783;SDS011;1907;49.238;9.262;2022-11-20T15:38:33;2.60;;;2.37;;
3783;SDS011;1907;49.238;9.262;2022-11-20T15:40:59;2.00;;;1.90;;
3783;SDS011;1907;49.238;9.262;2022-11-20T15:43:25;3.80;;;1.73;;
3783;SDS011;1907;49.238;9.262;2022-11-20T15:51:29;1.70;;;1.53;;
3783;SDS011;1907;49.238;9.262;2022-11-20T15:53:38;3.53;;;3.20;;
3783;SDS011;1907;49.238;9.262;2022-11-20T15:56:05;2.40;;;2.20;;
3783;SDS011;1907;49.238;9.262;2022-11-20T15:58:31;2.30;;;2.20;;
3783;SDS011;1907;49.238;9.262;2022-11-20T16:00:57;3.20;;;3.10;;
3783;SDS011;1907;49.238;9.262;2022-11-20T16:03:23;6.40;;;4.30;;
3783;SDS011;1907;49.238;9.262;2022-11-20T16:05:48;3.83;;;3.73;;
3783;SDS011;1907;49.238;9.262;2022-11-20T16:08:14;3.77;;;3.47;;
3783;SDS011;1907;49.238;9.262;2022-11-20T16:10:39;4.90;;;4.50;;
3783;SDS011;1907;49.238;9.262;2022-11-20T16:13:11;4.00;;;3.90;;
3783;SDS011;1907;49.238;9.262;2022-11-20T16:16:01;3.80;;;3.33;;
3783;SDS011;1907;49.238;9.262;2022-11-20T16:18:30;3.10;;;2.80;;
3783;SDS011;1907;49.238;9.262;2022-11-20T16:20:56;3.20;;;3.00;;
3783;SDS011;1907;49.238;9.262;2022-11-20T16:23:22;2.70;;;1.80;;
3783;SDS011;1907;49.238;9.262;2022-11-20T16:25:48;3.20;;;3.00;;
3783;SDS011;1907;49.238;9.262;2022-11-20T16:28:14;4.10;;;3.90;;
3783;SDS011;1907;49.238;9.262;2022-11-20T16:30:40;3.90;;;3.70;;
3783;SDS011;1907;49.238;9.262;2022-11-20T16:33:09;1.20;;;1.10;;
3783;SDS011;1907;49.238;9.262;2022-11-20T16:35:39;2.07;;;1.97;;
3783;SDS011;1907;49.238;9.262;2022-11-20T16:38:05;2.53;;;1.00;;
3783;SDS011;1907;49.238;9.262;2022-11-20T16:40:31;1.90;;;1.80;;
3783;SDS011;1907;49.238;9.262;2022-11-20T16:42:56;1.57;;;1.20;;
3783;SDS011;1907;49.238;9.262;2022-11-20T16:45:22;3.27;;;1.30;;
3783;SDS011;1907;49.238;9.262;2022-11-20T16:47:48;2.03;;;1.93;;
3783;SDS011;1907;49.238;9.262;2022-11-20T16:50:14;6.77;;;5.87;;
3783;SDS011;1907;49.238;9.262;2022-11-20T16:52:40;14.20;;;8.43;;
3783;SDS011;1907;49.238;9.262;2022-11-20T16:55:05;21.33;;;11.10;;
3783;SDS011;1907;49.238;9.262;2022-11-20T16:57:31;14.27;;;11.00;;
3783;SDS011;1907;49.238;9.262;2022-11-20T16:59:58;10.97;;;8.83;;
3783;SDS011;1907;49.238;9.262;2022-11-20T17:02:24;12.30;;;4.97;;
3783;SDS011;1907;49.238;9.262;2022-11-20T17:04:50;5.33;;;4.90;;
3783;SDS011;1907;49.238;9.262;2022-11-20T17:07:16;5.93;;;5.33;;
3783;SDS011;1907;49.238;9.262;2022-11-20T17:09:41;4.57;;;4.37;;
3783;SDS011;1907;49.238;9.262;2022-11-20T17:12:07;2.70;;;2.60;;
3783;SDS011;1907;49.238;9.262;2022-11-20T17:14:33;3.30;;;3.10;;
3783;SDS011;1907;49.238;9.262;2022-11-20T17:16:59;3.77;;;3.47;;